sensor_id;sensor_type;location;lat;lon;timestamp;temperature;humidity
9527;DHT22;4802;51.494;6.770;2022-07-19T00:00:41;24.10;99.90
9527;DHT22;4802;51.494;6.770;2022-07-19T00:03:14;23.70;99.90
9527;DHT22;4802;51.494;6.770;2022-07-19T00:05:44;24.10;99.90
9527;DHT22;4802;51.494;6.770;2022-07-19T00:08:13;24.00;99.90
9527;DHT22;4802;51.494;6.770;2022-07-19T00:10:42;24.00;99.90
9527;DHT22;4802;51.494;6.770;2022-07-19T00:13:12;24.00;99.90
9527;DHT22;4802;51.494;6.770;2022-07-19T00:15:42;23.90;99.90
9527;DHT22;4802;51.494;6.770;2022-07-19T00:18:14;23.90;99.90
9527;DHT22;4802;51.494;6.770;2022-07-19T00:20:43;23.90;99.90
9527;DHT22;4802;51.494;6.770;2022-07-19T00:23:12;23.90;99.90
9527;DHT22;4802;51.494;6.770;2022-07-19T00:25:41;23.80;99.90
9527;DHT22;4802;51.494;6.770;2022-07-19T00:28:10;23.70;99.90
9527;DHT22;4802;51.494;6.770;2022-07-19T00:30:42;24.00;99.90
9527;DHT22;4802;51.494;6.770;2022-07-19T00:33:11;23.60;99.90
9527;DHT22;4802;51.494;6.770;2022-07-19T00:35:40;23.40;99.90
9527;DHT22;4802;51.494;6.770;2022-07-19T00:38:10;23.60;99.90
9527;DHT22;4802;51.494;6.770;2022-07-19T00:40:41;23.50;99.90
9527;DHT22;4802;51.494;6.770;2022-07-19T00:43:11;23.60;99.90
9527;DHT22;4802;51.494;6.770;2022-07-19T00:45:42;23.50;99.90
9527;DHT22;4802;51.494;6.770;2022-07-19T00:48:11;23.50;99.90
9527;DHT22;4802;51.494;6.770;2022-07-19T00:50:41;23.40;99.90
9527;DHT22;4802;51.494;6.770;2022-07-19T00:53:10;23.40;99.90
9527;DHT22;4802;51.494;6.770;2022-07-19T00:55:41;23.40;99.90
9527;DHT22;4802;51.494;6.770;2022-07-19T00:58:12;23.40;99.90
9527;DHT22;4802;51.494;6.770;2022-07-19T01:00:43;23.10;99.90
9527;DHT22;4802;51.494;6.770;2022-07-19T01:03:13;23.40;99.90
9527;DHT22;4802;51.494;6.770;2022-07-19T01:05:42;23.40;99.90
9527;DHT22;4802;51.494;6.770;2022-07-19T01:08:14;23.30;99.90
9527;DHT22;4802;51.494;6.770;2022-07-19T01:10:43;23.30;99.90
9527;DHT22;4802;51.494;6.770;2022-07-19T01:13:12;23.30;99.90
9527;DHT22;4802;51.494;6.770;2022-07-19T01:15:43;23.30;99.90
9527;DHT22;4802;51.494;6.770;2022-07-19T01:18:12;23.20;99.90
9527;DHT22;4802;51.494;6.770;2022-07-19T01:20:41;23.10;99.90
9527;DHT22;4802;51.494;6.770;2022-07-19T01:23:12;23.10;99.90
9527;DHT22;4802;51.494;6.770;2022-07-19T01:25:41;23.10;99.90
9527;DHT22;4802;51.494;6.770;2022-07-19T01:28:10;23.00;99.90
9527;DHT22;4802;51.494;6.770;2022-07-19T01:30:39;23.00;99.90
9527;DHT22;4802;51.494;6.770;2022-07-19T01:33:08;23.00;99.90
9527;DHT22;4802;51.494;6.770;2022-07-19T01:35:37;23.00;99.90
9527;DHT22;4802;51.494;6.770;2022-07-19T01:38:06;22.90;99.90
9527;DHT22;4802;51.494;6.770;2022-07-19T01:40:36;22.80;99.90
9527;DHT22;4802;51.494;6.770;2022-07-19T01:43:07;22.70;99.90
9527;DHT22;4802;51.494;6.770;2022-07-19T01:45:36;22.80;99.90
9527;DHT22;4802;51.494;6.770;2022-07-19T01:48:05;22.70;99.90
9527;DHT22;4802;51.494;6.770;2022-07-19T01:50:34;22.70;99.90
9527;DHT22;4802;51.494;6.770;2022-07-19T01:53:04;22.80;99.90
9527;DHT22;4802;51.494;6.770;2022-07-19T01:55:33;22.80;99.90
9527;DHT22;4802;51.494;6.770;2022-07-19T01:58:04;22.70;99.90
9527;DHT22;4802;51.494;6.770;2022-07-19T02:00:33;22.70;99.90
9527;DHT22;4802;51.494;6.770;2022-07-19T02:03:02;22.70;99.90
9527;DHT22;4802;51.494;6.770;2022-07-19T02:05:31;22.70;99.90
9527;DHT22;4802;51.494;6.770;2022-07-19T02:08:01;22.70;99.90
9527;DHT22;4802;51.494;6.770;2022-07-19T02:10:31;22.60;99.90
9527;DHT22;4802;51.494;6.770;2022-07-19T02:13:00;22.60;99.90
9527;DHT22;4802;51.494;6.770;2022-07-19T02:15:31;22.60;99.90
9527;DHT22;4802;51.494;6.770;2022-07-19T02:18:01;22.60;99.90
9527;DHT22;4802;51.494;6.770;2022-07-19T02:20:30;22.40;99.90
9527;DHT22;4802;51.494;6.770;2022-07-19T02:22:59;22.50;99.90
9527;DHT22;4802;51.494;6.770;2022-07-19T02:25:28;22.60;99.90
9527;DHT22;4802;51.494;6.770;2022-07-19T02:27:57;22.60;99.90
9527;DHT22;4802;51.494;6.770;2022-07-19T02:30:27;22.50;99.90
9527;DHT22;4802;51.494;6.770;2022-07-19T02:32:58;22.50;99.90
9527;DHT22;4802;51.494;6.770;2022-07-19T02:35:27;22.30;99.90
9527;DHT22;4802;51.494;6.770;2022-07-19T02:37:56;22.30;99.90
9527;DHT22;4802;51.494;6.770;2022-07-19T02:40:25;22.30;99.90
9527;DHT22;4802;51.494;6.770;2022-07-19T02:42:54;22.40;99.90
9527;DHT22;4802;51.494;6.770;2022-07-19T02:45:23;22.30;99.90
9527;DHT22;4802;51.494;6.770;2022-07-19T02:47:52;22.30;99.90
9527;DHT22;4802;51.494;6.770;2022-07-19T02:50:23;22.30;99.90
9527;DHT22;4802;51.494;6.770;2022-07-19T02:52:52;22.10;99.90
9527;DHT22;4802;51.494;6.770;2022-07-19T02:55:22;22.20;99.90
9527;DHT22;4802;51.494;6.770;2022-07-19T02:57:51;22.20;99.90
9527;DHT22;4802;51.494;6.770;2022-07-19T03:00:20;22.10;99.90
9527;DHT22;4802;51.494;6.770;2022-07-19T03:02:49;22.20;99.90
9527;DHT22;4802;51.494;6.770;2022-07-19T03:05:18;22.20;99.90
9527;DHT22;4802;51.494;6.770;2022-07-19T03:07:49;22.20;99.90
9527;DHT22;4802;51.494;6.770;2022-07-19T03:10:18;22.20;99.90
9527;DHT22;4802;51.494;6.770;2022-07-19T03:12:47;22.10;99.90
9527;DHT22;4802;51.494;6.770;2022-07-19T03:15:16;22.10;99.90
9527;DHT22;4802;51.494;6.770;2022-07-19T03:17:45;22.10;99.90
9527;DHT22;4802;51.494;6.770;2022-07-19T03:20:15;22.10;99.90
9527;DHT22;4802;51.494;6.770;2022-07-19T03:22:44;22.10;99.90
9527;DHT22;4802;51.494;6.770;2022-07-19T03:25:15;22.10;99.90
9527;DHT22;4802;51.494;6.770;2022-07-19T03:27:43;22.20;99.90
9527;DHT22;4802;51.494;6.770;2022-07-19T03:30:13;22.10;99.90
9527;DHT22;4802;51.494;6.770;2022-07-19T03:32:42;21.90;99.90
9527;DHT22;4802;51.494;6.770;2022-07-19T03:35:11;21.90;99.90
9527;DHT22;4802;51.494;6.770;2022-07-19T03:37:40;22.00;99.90
9527;DHT22;4802;51.494;6.770;2022-07-19T03:40:10;21.90;99.90
9527;DHT22;4802;51.494;6.770;2022-07-19T03:42:41;22.00;99.90
9527;DHT22;4802;51.494;6.770;2022-07-19T03:45:10;21.90;99.90
9527;DHT22;4802;51.494;6.770;2022-07-19T03:47:40;21.90;99.90
9527;DHT22;4802;51.494;6.770;2022-07-19T03:50:09;22.00;99.90
9527;DHT22;4802;51.494;6.770;2022-07-19T03:52:38;21.90;99.90
9527;DHT22;4802;51.494;6.770;2022-07-19T03:55:08;21.90;99.90
9527;DHT22;4802;51.494;6.770;2022-07-19T03:57:37;21.80;99.90
9527;DHT22;4802;51.494;6.770;2022-07-19T04:00:08;21.90;99.90
9527;DHT22;4802;51.494;6.770;2022-07-19T04:02:37;21.90;99.90
9527;DHT22;4802;51.494;6.770;2022-07-19T04:05:07;21.80;99.90
9527;DHT22;4802;51.494;6.770;2022-07-19T04:07:38;21.80;99.90
9527;DHT22;4802;51.494;6.770;2022-07-19T04:10:08;21.90;99.90
9527;DHT22;4802;51.494;6.770;2022-07-19T04:12:37;21.90;99.90
9527;DHT22;4802;51.494;6.770;2022-07-19T04:15:08;22.00;99.90
9527;DHT22;4802;51.494;6.770;2022-07-19T04:17:37;22.00;99.90
9527;DHT22;4802;51.494;6.770;2022-07-19T04:20:07;22.10;99.90
9527;DHT22;4802;51.494;6.770;2022-07-19T04:22:36;22.10;99.90
9527;DHT22;4802;51.494;6.770;2022-07-19T04:25:06;22.10;99.90
9527;DHT22;4802;51.494;6.770;2022-07-19T04:27:35;22.20;99.90
9527;DHT22;4802;51.494;6.770;2022-07-19T04:30:07;22.40;99.90
9527;DHT22;4802;51.494;6.770;2022-07-19T04:32:37;22.80;99.90
9527;DHT22;4802;51.494;6.770;2022-07-19T04:35:06;23.30;99.90
9527;DHT22;4802;51.494;6.770;2022-07-19T04:37:35;23.60;99.90
9527;DHT22;4802;51.494;6.770;2022-07-19T04:40:05;23.90;99.90
9527;DHT22;4802;51.494;6.770;2022-07-19T04:42:35;24.20;99.90
9527;DHT22;4802;51.494;6.770;2022-07-19T04:45:05;24.60;99.90
9527;DHT22;4802;51.494;6.770;2022-07-19T04:47:36;24.70;99.90
9527;DHT22;4802;51.494;6.770;2022-07-19T04:50:06;25.30;99.90
9527;DHT22;4802;51.494;6.770;2022-07-19T04:52:35;25.60;99.90
9527;DHT22;4802;51.494;6.770;2022-07-19T04:55:05;26.00;99.90
9527;DHT22;4802;51.494;6.770;2022-07-19T04:57:34;26.40;99.90
9527;DHT22;4802;51.494;6.770;2022-07-19T05:00:07;26.90;99.90
9527;DHT22;4802;51.494;6.770;2022-07-19T05:02:39;26.90;99.90
9527;DHT22;4802;51.494;6.770;2022-07-19T05:05:08;27.60;99.90
9527;DHT22;4802;51.494;6.770;2022-07-19T05:07:37;27.90;99.90
9527;DHT22;4802;51.494;6.770;2022-07-19T05:10:07;28.00;99.90
9527;DHT22;4802;51.494;6.770;2022-07-19T05:12:37;28.10;99.90
9527;DHT22;4802;51.494;6.770;2022-07-19T05:15:06;28.50;99.90
9527;DHT22;4802;51.494;6.770;2022-07-19T05:17:43;28.60;99.90
9527;DHT22;4802;51.494;6.770;2022-07-19T05:20:12;28.70;99.90
9527;DHT22;4802;51.494;6.770;2022-07-19T05:22:43;28.70;99.90
9527;DHT22;4802;51.494;6.770;2022-07-19T05:25:15;28.40;99.90
9527;DHT22;4802;51.494;6.770;2022-07-19T05:27:44;28.70;99.90
9527;DHT22;4802;51.494;6.770;2022-07-19T05:30:13;28.90;99.90
9527;DHT22;4802;51.494;6.770;2022-07-19T05:32:44;28.50;99.90
9527;DHT22;4802;51.494;6.770;2022-07-19T05:35:14;28.30;99.90
9527;DHT22;4802;51.494;6.770;2022-07-19T05:37:43;27.90;99.90
9527;DHT22;4802;51.494;6.770;2022-07-19T05:40:12;27.50;99.90
9527;DHT22;4802;51.494;6.770;2022-07-19T05:42:41;27.50;99.90
9527;DHT22;4802;51.494;6.770;2022-07-19T05:45:11;27.40;99.90
9527;DHT22;4802;51.494;6.770;2022-07-19T05:47:40;27.40;99.90
9527;DHT22;4802;51.494;6.770;2022-07-19T05:50:10;27.40;99.90
9527;DHT22;4802;51.494;6.770;2022-07-19T05:52:39;27.60;99.90
9527;DHT22;4802;51.494;6.770;2022-07-19T05:55:09;27.80;99.90
9527;DHT22;4802;51.494;6.770;2022-07-19T05:57:37;27.80;99.90
9527;DHT22;4802;51.494;6.770;2022-07-19T06:00:08;28.00;99.90
9527;DHT22;4802;51.494;6.770;2022-07-19T06:02:37;28.20;99.90
9527;DHT22;4802;51.494;6.770;2022-07-19T06:05:08;28.40;99.90
9527;DHT22;4802;51.494;6.770;2022-07-19T06:07:39;28.60;99.90
9527;DHT22;4802;51.494;6.770;2022-07-19T06:10:09;28.90;99.90
9527;DHT22;4802;51.494;6.770;2022-07-19T06:12:38;29.00;99.90
9527;DHT22;4802;51.494;6.770;2022-07-19T06:15:08;29.20;99.90
9527;DHT22;4802;51.494;6.770;2022-07-19T06:17:38;29.30;99.90
9527;DHT22;4802;51.494;6.770;2022-07-19T06:20:08;29.70;99.90
9527;DHT22;4802;51.494;6.770;2022-07-19T06:22:39;30.10;99.90
9527;DHT22;4802;51.494;6.770;2022-07-19T06:25:09;30.50;99.90
9527;DHT22;4802;51.494;6.770;2022-07-19T06:27:38;30.80;99.90
9527;DHT22;4802;51.494;6.770;2022-07-19T06:30:08;31.00;99.90
9527;DHT22;4802;51.494;6.770;2022-07-19T06:32:38;31.30;99.90
9527;DHT22;4802;51.494;6.770;2022-07-19T06:35:08;31.90;99.90
9527;DHT22;4802;51.494;6.770;2022-07-19T06:37:38;32.40;99.90
9527;DHT22;4802;51.494;6.770;2022-07-19T06:40:08;32.90;99.90
9527;DHT22;4802;51.494;6.770;2022-07-19T06:42:39;33.20;99.90
9527;DHT22;4802;51.494;6.770;2022-07-19T06:45:09;33.30;99.90
9527;DHT22;4802;51.494;6.770;2022-07-19T06:47:38;33.40;99.90
9527;DHT22;4802;51.494;6.770;2022-07-19T06:50:08;33.80;99.90
9527;DHT22;4802;51.494;6.770;2022-07-19T06:52:59;34.00;99.90
9527;DHT22;4802;51.494;6.770;2022-07-19T06:55:28;34.50;99.90
9527;DHT22;4802;51.494;6.770;2022-07-19T06:57:57;34.90;99.90
9527;DHT22;4802;51.494;6.770;2022-07-19T07:00:27;35.30;99.90
9527;DHT22;4802;51.494;6.770;2022-07-19T07:02:57;35.60;99.90
9527;DHT22;4802;51.494;6.770;2022-07-19T07:05:26;36.00;99.90
9527;DHT22;4802;51.494;6.770;2022-07-19T07:07:55;36.10;99.90
9527;DHT22;4802;51.494;6.770;2022-07-19T07:10:26;36.50;99.90
9527;DHT22;4802;51.494;6.770;2022-07-19T07:12:55;36.70;99.90
9527;DHT22;4802;51.494;6.770;2022-07-19T07:15:24;36.60;99.90
9527;DHT22;4802;51.494;6.770;2022-07-19T07:17:53;36.80;99.90
9527;DHT22;4802;51.494;6.770;2022-07-19T07:20:22;37.30;99.90
9527;DHT22;4802;51.494;6.770;2022-07-19T07:22:52;37.30;99.90
9527;DHT22;4802;51.494;6.770;2022-07-19T07:25:21;37.70;99.90
9527;DHT22;4802;51.494;6.770;2022-07-19T07:27:52;37.70;99.90
9527;DHT22;4802;51.494;6.770;2022-07-19T07:30:21;37.80;99.90
9527;DHT22;4802;51.494;6.770;2022-07-19T07:32:51;37.30;99.90
9527;DHT22;4802;51.494;6.770;2022-07-19T07:35:20;37.10;99.90
9527;DHT22;4802;51.494;6.770;2022-07-19T07:37:49;37.20;99.90
9527;DHT22;4802;51.494;6.770;2022-07-19T07:40:19;37.50;99.90
9527;DHT22;4802;51.494;6.770;2022-07-19T07:42:49;37.30;99.90
9527;DHT22;4802;51.494;6.770;2022-07-19T07:45:19;37.90;99.90
9527;DHT22;4802;51.494;6.770;2022-07-19T07:47:48;38.10;99.90
9527;DHT22;4802;51.494;6.770;2022-07-19T07:50:18;38.40;99.90
9527;DHT22;4802;51.494;6.770;2022-07-19T07:52:47;38.80;99.90
9527;DHT22;4802;51.494;6.770;2022-07-19T07:55:16;38.90;99.90
9527;DHT22;4802;51.494;6.770;2022-07-19T07:57:56;38.90;99.90
9527;DHT22;4802;51.494;6.770;2022-07-19T08:00:28;38.60;99.90
9527;DHT22;4802;51.494;6.770;2022-07-19T08:02:57;38.30;99.90
9527;DHT22;4802;51.494;6.770;2022-07-19T08:05:27;38.30;99.90
9527;DHT22;4802;51.494;6.770;2022-07-19T08:07:56;38.70;99.90
9527;DHT22;4802;51.494;6.770;2022-07-19T08:10:27;38.60;99.90
9527;DHT22;4802;51.494;6.770;2022-07-19T08:12:56;38.80;99.90
9527;DHT22;4802;51.494;6.770;2022-07-19T08:15:35;39.10;99.90
9527;DHT22;4802;51.494;6.770;2022-07-19T08:18:05;39.40;99.90
9527;DHT22;4802;51.494;6.770;2022-07-19T08:20:34;39.20;99.90
9527;DHT22;4802;51.494;6.770;2022-07-19T08:23:04;38.70;99.90
9527;DHT22;4802;51.494;6.770;2022-07-19T08:25:36;38.60;99.90
9527;DHT22;4802;51.494;6.770;2022-07-19T08:28:06;38.70;99.90
9527;DHT22;4802;51.494;6.770;2022-07-19T08:30:38;38.80;99.90
9527;DHT22;4802;51.494;6.770;2022-07-19T08:33:27;39.30;99.90
9527;DHT22;4802;51.494;6.770;2022-07-19T08:35:57;39.70;99.90
9527;DHT22;4802;51.494;6.770;2022-07-19T08:38:27;40.10;99.90
9527;DHT22;4802;51.494;6.770;2022-07-19T08:40:57;40.10;99.90
9527;DHT22;4802;51.494;6.770;2022-07-19T08:43:28;40.30;99.90
9527;DHT22;4802;51.494;6.770;2022-07-19T08:46:03;40.40;99.90
9527;DHT22;4802;51.494;6.770;2022-07-19T08:48:33;40.30;99.90
9527;DHT22;4802;51.494;6.770;2022-07-19T08:51:13;40.20;99.90
9527;DHT22;4802;51.494;6.770;2022-07-19T08:53:50;40.40;99.90
9527;DHT22;4802;51.494;6.770;2022-07-19T08:56:20;40.60;99.90
9527;DHT22;4802;51.494;6.770;2022-07-19T08:59:09;40.80;99.90
9527;DHT22;4802;51.494;6.770;2022-07-19T09:01:41;40.70;99.90
9527;DHT22;4802;51.494;6.770;2022-07-19T09:04:13;41.20;99.90
9527;DHT22;4802;51.494;6.770;2022-07-19T09:06:48;41.20;99.90
9527;DHT22;4802;51.494;6.770;2022-07-19T09:09:28;41.40;99.90
9527;DHT22;4802;51.494;6.770;2022-07-19T09:12:00;41.60;99.90
9527;DHT22;4802;51.494;6.770;2022-07-19T09:14:31;41.60;99.90
9527;DHT22;4802;51.494;6.770;2022-07-19T09:17:05;41.50;99.90
9527;DHT22;4802;51.494;6.770;2022-07-19T09:19:38;41.40;99.90
9527;DHT22;4802;51.494;6.770;2022-07-19T09:22:12;41.00;99.90
9527;DHT22;4802;51.494;6.770;2022-07-19T09:24:44;40.70;99.90
9527;DHT22;4802;51.494;6.770;2022-07-19T09:27:18;40.90;99.90
9527;DHT22;4802;51.494;6.770;2022-07-19T09:29:53;40.80;99.90
9527;DHT22;4802;51.494;6.770;2022-07-19T09:32:25;40.80;99.90
9527;DHT22;4802;51.494;6.770;2022-07-19T09:34:59;40.90;99.90
9527;DHT22;4802;51.494;6.770;2022-07-19T09:37:30;41.00;99.90
9527;DHT22;4802;51.494;6.770;2022-07-19T09:40:02;41.00;99.90
9527;DHT22;4802;51.494;6.770;2022-07-19T09:42:35;41.00;99.90
9527;DHT22;4802;51.494;6.770;2022-07-19T09:45:06;40.80;99.90
9527;DHT22;4802;51.494;6.770;2022-07-19T09:47:40;40.80;99.90
9527;DHT22;4802;51.494;6.770;2022-07-19T09:50:16;41.00;99.90
9527;DHT22;4802;51.494;6.770;2022-07-19T09:52:47;41.00;99.90
9527;DHT22;4802;51.494;6.770;2022-07-19T09:55:19;41.50;99.90
9527;DHT22;4802;51.494;6.770;2022-07-19T09:57:51;41.40;99.90
9527;DHT22;4802;51.494;6.770;2022-07-19T10:00:25;41.60;99.90
9527;DHT22;4802;51.494;6.770;2022-07-19T10:02:57;41.10;99.90
9527;DHT22;4802;51.494;6.770;2022-07-19T10:05:28;41.00;99.90
9527;DHT22;4802;51.494;6.770;2022-07-19T10:07:59;40.90;99.90
9527;DHT22;4802;51.494;6.770;2022-07-19T10:10:29;40.80;99.90
9527;DHT22;4802;51.494;6.770;2022-07-19T10:13:00;40.50;99.90
9527;DHT22;4802;51.494;6.770;2022-07-19T10:15:39;40.50;99.90
9527;DHT22;4802;51.494;6.770;2022-07-19T10:18:16;40.10;99.90
9527;DHT22;4802;51.494;6.770;2022-07-19T10:20:52;40.00;99.90
9527;DHT22;4802;51.494;6.770;2022-07-19T10:23:29;40.00;99.90
9527;DHT22;4802;51.494;6.770;2022-07-19T10:26:00;39.50;99.90
9527;DHT22;4802;51.494;6.770;2022-07-19T10:28:33;39.20;99.90
9527;DHT22;4802;51.494;6.770;2022-07-19T10:31:28;39.20;99.90
9527;DHT22;4802;51.494;6.770;2022-07-19T10:34:10;38.80;99.90
9527;DHT22;4802;51.494;6.770;2022-07-19T10:36:45;38.40;99.90
9527;DHT22;4802;51.494;6.770;2022-07-19T10:39:26;38.20;99.90
9527;DHT22;4802;51.494;6.770;2022-07-19T10:42:13;38.20;99.90
9527;DHT22;4802;51.494;6.770;2022-07-19T10:45:11;38.20;99.90
9527;DHT22;4802;51.494;6.770;2022-07-19T10:48:09;38.20;99.90
9527;DHT22;4802;51.494;6.770;2022-07-19T10:50:54;38.30;99.90
9527;DHT22;4802;51.494;6.770;2022-07-19T10:53:58;38.20;99.90
9527;DHT22;4802;51.494;6.770;2022-07-19T10:56:55;38.20;99.90
9527;DHT22;4802;51.494;6.770;2022-07-19T10:59:40;38.30;99.90
9527;DHT22;4802;51.494;6.770;2022-07-19T11:02:22;38.20;99.90
9527;DHT22;4802;51.494;6.770;2022-07-19T11:05:21;38.50;99.90
9527;DHT22;4802;51.494;6.770;2022-07-19T11:07:54;38.40;99.90
9527;DHT22;4802;51.494;6.770;2022-07-19T11:10:25;38.20;99.90
9527;DHT22;4802;51.494;6.770;2022-07-19T11:12:56;38.10;99.90
9527;DHT22;4802;51.494;6.770;2022-07-19T11:15:26;38.30;99.90
9527;DHT22;4802;51.494;6.770;2022-07-19T11:18:06;38.10;99.90
9527;DHT22;4802;51.494;6.770;2022-07-19T11:20:36;38.20;99.90
9527;DHT22;4802;51.494;6.770;2022-07-19T11:23:08;38.20;99.90
9527;DHT22;4802;51.494;6.770;2022-07-19T11:25:38;38.30;99.90
9527;DHT22;4802;51.494;6.770;2022-07-19T11:28:19;38.40;99.90
9527;DHT22;4802;51.494;6.770;2022-07-19T11:30:50;38.70;99.90
9527;DHT22;4802;51.494;6.770;2022-07-19T11:33:20;38.80;99.90
9527;DHT22;4802;51.494;6.770;2022-07-19T11:35:55;38.50;99.90
9527;DHT22;4802;51.494;6.770;2022-07-19T11:38:34;38.10;99.90
9527;DHT22;4802;51.494;6.770;2022-07-19T11:41:07;38.20;99.90
9527;DHT22;4802;51.494;6.770;2022-07-19T11:43:37;38.00;99.90
9527;DHT22;4802;51.494;6.770;2022-07-19T11:46:07;38.20;99.90
9527;DHT22;4802;51.494;6.770;2022-07-19T11:48:37;38.60;99.90
9527;DHT22;4802;51.494;6.770;2022-07-19T11:51:08;38.50;99.90
9527;DHT22;4802;51.494;6.770;2022-07-19T11:53:40;38.50;99.90
9527;DHT22;4802;51.494;6.770;2022-07-19T11:56:21;38.10;99.90
9527;DHT22;4802;51.494;6.770;2022-07-19T11:58:51;38.20;99.90
9527;DHT22;4802;51.494;6.770;2022-07-19T12:01:25;38.10;99.90
9527;DHT22;4802;51.494;6.770;2022-07-19T12:03:57;38.20;99.90
9527;DHT22;4802;51.494;6.770;2022-07-19T12:06:38;38.20;99.90
9527;DHT22;4802;51.494;6.770;2022-07-19T12:09:10;38.30;99.90
9527;DHT22;4802;51.494;6.770;2022-07-19T12:11:41;38.10;99.90
9527;DHT22;4802;51.494;6.770;2022-07-19T12:14:19;38.10;99.90
9527;DHT22;4802;51.494;6.770;2022-07-19T12:16:50;38.20;99.90
9527;DHT22;4802;51.494;6.770;2022-07-19T12:19:21;38.30;99.90
9527;DHT22;4802;51.494;6.770;2022-07-19T12:21:51;38.40;99.90
9527;DHT22;4802;51.494;6.770;2022-07-19T12:24:23;38.40;99.90
9527;DHT22;4802;51.494;6.770;2022-07-19T12:27:02;38.30;99.90
9527;DHT22;4802;51.494;6.770;2022-07-19T12:29:33;38.20;99.90
9527;DHT22;4802;51.494;6.770;2022-07-19T12:32:05;38.00;99.90
9527;DHT22;4802;51.494;6.770;2022-07-19T12:34:45;37.80;99.90
9527;DHT22;4802;51.494;6.770;2022-07-19T12:37:22;37.70;99.90
9527;DHT22;4802;51.494;6.770;2022-07-19T12:39:59;37.80;99.90
9527;DHT22;4802;51.494;6.770;2022-07-19T12:42:42;37.70;99.90
9527;DHT22;4802;51.494;6.770;2022-07-19T12:45:14;37.70;99.90
9527;DHT22;4802;51.494;6.770;2022-07-19T12:47:45;37.80;99.90
9527;DHT22;4802;51.494;6.770;2022-07-19T12:50:25;37.70;99.90
9527;DHT22;4802;51.494;6.770;2022-07-19T12:52:56;37.60;99.90
9527;DHT22;4802;51.494;6.770;2022-07-19T12:55:29;37.30;99.90
9527;DHT22;4802;51.494;6.770;2022-07-19T12:57:59;37.20;99.90
9527;DHT22;4802;51.494;6.770;2022-07-19T13:00:29;37.30;99.90
9527;DHT22;4802;51.494;6.770;2022-07-19T13:03:00;37.40;99.90
9527;DHT22;4802;51.494;6.770;2022-07-19T13:05:33;37.40;99.90
9527;DHT22;4802;51.494;6.770;2022-07-19T13:08:02;37.30;99.90
9527;DHT22;4802;51.494;6.770;2022-07-19T13:10:36;37.30;99.90
9527;DHT22;4802;51.494;6.770;2022-07-19T13:13:06;37.20;99.90
9527;DHT22;4802;51.494;6.770;2022-07-19T13:15:36;37.20;99.90
9527;DHT22;4802;51.494;6.770;2022-07-19T13:18:05;37.20;99.90
9527;DHT22;4802;51.494;6.770;2022-07-19T13:20:34;37.30;99.90
9527;DHT22;4802;51.494;6.770;2022-07-19T13:23:04;37.30;99.90
9527;DHT22;4802;51.494;6.770;2022-07-19T13:25:35;37.30;99.90
9527;DHT22;4802;51.494;6.770;2022-07-19T13:28:11;37.40;99.90
9527;DHT22;4802;51.494;6.770;2022-07-19T13:30:44;37.30;99.90
9527;DHT22;4802;51.494;6.770;2022-07-19T13:33:15;37.30;99.90
9527;DHT22;4802;51.494;6.770;2022-07-19T13:35:44;37.30;99.90
9527;DHT22;4802;51.494;6.770;2022-07-19T13:38:13;37.20;99.90
9527;DHT22;4802;51.494;6.770;2022-07-19T13:40:44;37.40;99.90
9527;DHT22;4802;51.494;6.770;2022-07-19T13:43:16;37.20;99.90
9527;DHT22;4802;51.494;6.770;2022-07-19T13:45:46;37.20;99.90
9527;DHT22;4802;51.494;6.770;2022-07-19T13:48:18;37.20;99.90
9527;DHT22;4802;51.494;6.770;2022-07-19T13:50:47;37.10;99.90
9527;DHT22;4802;51.494;6.770;2022-07-19T13:53:16;37.20;99.90
9527;DHT22;4802;51.494;6.770;2022-07-19T13:55:49;37.30;99.90
9527;DHT22;4802;51.494;6.770;2022-07-19T13:58:18;37.30;99.90
9527;DHT22;4802;51.494;6.770;2022-07-19T14:00:48;37.30;99.90
9527;DHT22;4802;51.494;6.770;2022-07-19T14:03:20;37.10;99.90
9527;DHT22;4802;51.494;6.770;2022-07-19T14:05:53;37.00;99.90
9527;DHT22;4802;51.494;6.770;2022-07-19T14:08:31;36.80;99.90
9527;DHT22;4802;51.494;6.770;2022-07-19T14:11:14;37.10;99.90
9527;DHT22;4802;51.494;6.770;2022-07-19T14:13:44;37.20;99.90
9527;DHT22;4802;51.494;6.770;2022-07-19T14:16:25;37.20;99.90
9527;DHT22;4802;51.494;6.770;2022-07-19T14:19:12;37.10;99.90
9527;DHT22;4802;51.494;6.770;2022-07-19T14:21:57;37.10;99.90
9527;DHT22;4802;51.494;6.770;2022-07-19T14:24:39;37.00;99.90
9527;DHT22;4802;51.494;6.770;2022-07-19T14:27:17;36.90;99.90
9527;DHT22;4802;51.494;6.770;2022-07-19T14:29:48;36.90;99.90
9527;DHT22;4802;51.494;6.770;2022-07-19T14:32:27;36.90;99.90
9527;DHT22;4802;51.494;6.770;2022-07-19T14:35:00;36.80;99.90
9527;DHT22;4802;51.494;6.770;2022-07-19T14:37:33;36.80;99.90
9527;DHT22;4802;51.494;6.770;2022-07-19T14:40:18;36.80;99.90
9527;DHT22;4802;51.494;6.770;2022-07-19T14:42:50;36.90;99.90
9527;DHT22;4802;51.494;6.770;2022-07-19T14:45:21;37.00;99.90
9527;DHT22;4802;51.494;6.770;2022-07-19T14:47:51;37.10;99.90
9527;DHT22;4802;51.494;6.770;2022-07-19T14:50:22;37.20;99.90
9527;DHT22;4802;51.494;6.770;2022-07-19T14:52:52;37.20;99.90
9527;DHT22;4802;51.494;6.770;2022-07-19T14:55:24;37.20;99.90
9527;DHT22;4802;51.494;6.770;2022-07-19T14:57:59;37.20;99.90
9527;DHT22;4802;51.494;6.770;2022-07-19T15:00:29;37.20;99.90
9527;DHT22;4802;51.494;6.770;2022-07-19T15:02:59;37.20;99.90
9527;DHT22;4802;51.494;6.770;2022-07-19T15:05:28;37.20;99.90
9527;DHT22;4802;51.494;6.770;2022-07-19T15:07:58;37.20;99.90
9527;DHT22;4802;51.494;6.770;2022-07-19T15:10:28;37.20;99.90
9527;DHT22;4802;51.494;6.770;2022-07-19T15:12:59;37.20;99.90
9527;DHT22;4802;51.494;6.770;2022-07-19T15:15:28;37.20;99.90
9527;DHT22;4802;51.494;6.770;2022-07-19T15:17:57;37.20;99.90
9527;DHT22;4802;51.494;6.770;2022-07-19T15:20:37;37.30;99.90
9527;DHT22;4802;51.494;6.770;2022-07-19T15:23:10;37.20;99.90
9527;DHT22;4802;51.494;6.770;2022-07-19T15:25:41;37.00;99.90
9527;DHT22;4802;51.494;6.770;2022-07-19T15:28:14;37.30;99.90
9527;DHT22;4802;51.494;6.770;2022-07-19T15:30:43;37.10;99.90
9527;DHT22;4802;51.494;6.770;2022-07-19T15:33:13;37.20;99.90
9527;DHT22;4802;51.494;6.770;2022-07-19T15:35:46;37.20;99.90
9527;DHT22;4802;51.494;6.770;2022-07-19T15:38:18;37.20;99.90
9527;DHT22;4802;51.494;6.770;2022-07-19T15:40:49;37.20;99.90
9527;DHT22;4802;51.494;6.770;2022-07-19T15:43:25;37.20;99.90
9527;DHT22;4802;51.494;6.770;2022-07-19T15:45:55;37.30;99.90
9527;DHT22;4802;51.494;6.770;2022-07-19T15:48:25;37.40;99.90
9527;DHT22;4802;51.494;6.770;2022-07-19T15:50:54;37.40;99.90
9527;DHT22;4802;51.494;6.770;2022-07-19T15:53:25;37.30;99.90
9527;DHT22;4802;51.494;6.770;2022-07-19T15:55:55;37.30;99.90
9527;DHT22;4802;51.494;6.770;2022-07-19T15:58:27;37.20;99.90
9527;DHT22;4802;51.494;6.770;2022-07-19T16:01:00;37.20;99.90
9527;DHT22;4802;51.494;6.770;2022-07-19T16:03:32;37.30;99.90
9527;DHT22;4802;51.494;6.770;2022-07-19T16:06:02;37.30;99.90
9527;DHT22;4802;51.494;6.770;2022-07-19T16:08:32;37.30;99.90
9527;DHT22;4802;51.494;6.770;2022-07-19T16:11:01;37.00;99.90
9527;DHT22;4802;51.494;6.770;2022-07-19T16:13:34;37.30;99.90
9527;DHT22;4802;51.494;6.770;2022-07-19T16:16:04;37.20;99.90
9527;DHT22;4802;51.494;6.770;2022-07-19T16:18:35;37.20;99.90
9527;DHT22;4802;51.494;6.770;2022-07-19T16:21:05;37.20;99.90
9527;DHT22;4802;51.494;6.770;2022-07-19T16:23:39;37.20;99.90
9527;DHT22;4802;51.494;6.770;2022-07-19T16:26:26;37.20;99.90
9527;DHT22;4802;51.494;6.770;2022-07-19T16:28:58;37.20;99.90
9527;DHT22;4802;51.494;6.770;2022-07-19T16:31:28;37.20;99.90